sensor_id;sensor_type;location;lat;lon;timestamp;P1;durP1;ratioP1;P2;durP2;ratioP2
21488;SDS011;10906;45.194;5.684;2024-03-23T06:03:39;11.93;;;7.88;;
21488;SDS011;10906;45.194;5.684;2024-03-23T06:06:39;12.52;;;8.77;;
21488;SDS011;10906;45.194;5.684;2024-03-23T06:09:24;12.02;;;8.82;;
21488;SDS011;10906;45.194;5.684;2024-03-23T06:12:09;12.20;;;8.60;;
21488;SDS011;10906;45.194;5.684;2024-03-23T06:14:53;12.13;;;8.80;;
21488;SDS011;10906;45.194;5.684;2024-03-23T06:17:41;18.10;;;10.05;;
21488;SDS011;10906;45.194;5.684;2024-03-23T06:20:25;13.80;;;9.38;;
21488;SDS011;10906;45.194;5.684;2024-03-23T06:23:10;15.38;;;9.35;;
21488;SDS011;10906;45.194;5.684;2024-03-23T06:25:56;13.73;;;9.38;;
21488;SDS011;10906;45.194;5.684;2024-03-23T06:28:47;13.65;;;8.57;;
21488;SDS011;10906;45.194;5.684;2024-03-23T06:31:31;16.63;;;8.85;;
21488;SDS011;10906;45.194;5.684;2024-03-23T06:34:16;18.42;;;9.52;;
21488;SDS011;10906;45.194;5.684;2024-03-23T06:37:01;12.13;;;8.82;;
21488;SDS011;10906;45.194;5.684;2024-03-23T06:39:46;13.77;;;9.65;;
21488;SDS011;10906;45.194;5.684;2024-03-23T06:42:31;14.70;;;9.80;;
21488;SDS011;10906;45.194;5.684;2024-03-23T06:45:16;11.95;;;8.18;;
21488;SDS011;10906;45.194;5.684;2024-03-23T06:48:03;15.55;;;8.98;;
21488;SDS011;10906;45.194;5.684;2024-03-23T06:50:47;13.88;;;9.38;;
21488;SDS011;10906;45.194;5.684;2024-03-23T06:53:32;10.90;;;8.13;;
21488;SDS011;10906;45.194;5.684;2024-03-23T06:56:16;13.95;;;9.27;;
21488;SDS011;10906;45.194;5.684;2024-03-23T06:59:01;15.27;;;9.23;;
21488;SDS011;10906;45.194;5.684;2024-03-23T07:01:45;15.05;;;9.18;;
21488;SDS011;10906;45.194;5.684;2024-03-23T07:04:30;14.45;;;9.07;;
21488;SDS011;10906;45.194;5.684;2024-03-23T07:07:15;15.30;;;9.63;;
21488;SDS011;10906;45.194;5.684;2024-03-23T07:41:09;13.07;;;7.80;;
21488;SDS011;10906;45.194;5.684;2024-03-23T07:43:55;10.15;;;7.05;;
21488;SDS011;10906;45.194;5.684;2024-03-23T07:50:00;9.68;;;6.72;;
21488;SDS011;10906;45.194;5.684;2024-03-23T07:52:45;7.95;;;6.07;;
21488;SDS011;10906;45.194;5.684;2024-03-23T07:55:35;9.25;;;6.60;;
21488;SDS011;10906;45.194;5.684;2024-03-23T07:58:23;9.45;;;6.18;;
21488;SDS011;10906;45.194;5.684;2024-03-23T08:04:32;11.35;;;5.97;;
21488;SDS011;10906;45.194;5.684;2024-03-23T08:07:30;9.27;;;6.10;;
21488;SDS011;10906;45.194;5.684;2024-03-23T08:10:19;9.30;;;6.28;;
21488;SDS011;10906;45.194;5.684;2024-03-23T08:13:03;11.40;;;6.80;;
21488;SDS011;10906;45.194;5.684;2024-03-23T08:18:32;9.48;;;6.05;;
21488;SDS011;10906;45.194;5.684;2024-03-23T08:21:28;7.07;;;5.57;;
21488;SDS011;10906;45.194;5.684;2024-03-23T08:24:20;6.65;;;5.95;;
21488;SDS011;10906;45.194;5.684;2024-03-23T08:29:53;7.80;;;5.70;;
21488;SDS011;10906;45.194;5.684;2024-03-23T08:36:14;7.25;;;5.50;;
21488;SDS011;10906;45.194;5.684;2024-03-23T08:39:05;7.43;;;5.47;;
21488;SDS011;10906;45.194;5.684;2024-03-23T08:45:34;5.18;;;2.78;;
21488;SDS011;10906;45.194;5.684;2024-03-23T08:48:22;3.58;;;2.00;;
21488;SDS011;10906;45.194;5.684;2024-03-23T08:51:39;3.47;;;2.10;;
21488;SDS011;10906;45.194;5.684;2024-03-23T08:54:23;3.00;;;1.63;;
21488;SDS011;10906;45.194;5.684;2024-03-23T08:57:23;4.43;;;1.73;;
21488;SDS011;10906;45.194;5.684;2024-03-23T09:00:13;2.10;;;1.63;;
21488;SDS011;10906;45.194;5.684;2024-03-23T09:03:04;8.10;;;0.90;;
21488;SDS011;10906;45.194;5.684;2024-03-23T09:05:55;3.47;;;1.52;;
21488;SDS011;10906;45.194;5.684;2024-03-23T09:08:40;2.50;;;1.20;;
21488;SDS011;10906;45.194;5.684;2024-03-23T09:11:25;4.78;;;1.25;;
21488;SDS011;10906;45.194;5.684;2024-03-23T09:14:28;3.08;;;1.10;;
21488;SDS011;10906;45.194;5.684;2024-03-23T09:32:02;6.68;;;1.63;;
21488;SDS011;10906;45.194;5.684;2024-03-23T09:34:52;8.88;;;1.88;;
21488;SDS011;10906;45.194;5.684;2024-03-23T09:37:54;8.82;;;1.88;;
21488;SDS011;10906;45.194;5.684;2024-03-23T09:45:39;5.80;;;1.73;;
21488;SDS011;10906;45.194;5.684;2024-03-23T09:48:24;8.70;;;2.47;;
21488;SDS011;10906;45.194;5.684;2024-03-23T09:51:17;7.40;;;2.08;;
21488;SDS011;10906;45.194;5.684;2024-03-23T09:56:48;11.52;;;1.90;;
21488;SDS011;10906;45.194;5.684;2024-03-23T10:00:13;8.07;;;2.00;;
21488;SDS011;10906;45.194;5.684;2024-03-23T10:10:44;8.00;;;2.30;;
21488;SDS011;10906;45.194;5.684;2024-03-23T10:13:35;6.75;;;2.10;;
21488;SDS011;10906;45.194;5.684;2024-03-23T10:16:29;10.30;;;2.15;;
21488;SDS011;10906;45.194;5.684;2024-03-23T10:19:19;6.32;;;1.83;;
21488;SDS011;10906;45.194;5.684;2024-03-23T10:22:21;8.05;;;2.47;;
21488;SDS011;10906;45.194;5.684;2024-03-23T10:25:22;8.57;;;1.92;;
21488;SDS011;10906;45.194;5.684;2024-03-23T10:28:07;9.35;;;2.28;;
21488;SDS011;10906;45.194;5.684;2024-03-23T10:30:53;8.20;;;2.00;;
21488;SDS011;10906;45.194;5.684;2024-03-23T10:33:44;11.15;;;2.42;;
21488;SDS011;10906;45.194;5.684;2024-03-23T10:36:32;34.20;;;6.57;;
21488;SDS011;10906;45.194;5.684;2024-03-23T10:39:18;9.32;;;2.17;;
21488;SDS011;10906;45.194;5.684;2024-03-23T10:42:08;9.10;;;2.63;;
21488;SDS011;10906;45.194;5.684;2024-03-23T10:44:57;7.97;;;2.10;;
21488;SDS011;10906;45.194;5.684;2024-03-23T11:18:22;6.80;;;2.38;;
21488;SDS011;10906;45.194;5.684;2024-03-23T11:21:07;4.93;;;1.90;;
21488;SDS011;10906;45.194;5.684;2024-03-23T11:23:51;5.47;;;1.95;;
21488;SDS011;10906;45.194;5.684;2024-03-23T11:26:39;7.90;;;2.05;;
21488;SDS011;10906;45.194;5.684;2024-03-23T11:29:23;9.57;;;2.20;;
21488;SDS011;10906;45.194;5.684;2024-03-23T11:32:16;9.75;;;2.83;;
21488;SDS011;10906;45.194;5.684;2024-03-23T11:35:01;8.00;;;1.90;;
21488;SDS011;10906;45.194;5.684;2024-03-23T11:37:46;7.38;;;2.22;;
21488;SDS011;10906;45.194;5.684;2024-03-23T11:40:47;6.43;;;2.30;;
21488;SDS011;10906;45.194;5.684;2024-03-23T11:43:33;7.78;;;2.00;;
21488;SDS011;10906;45.194;5.684;2024-03-23T11:46:24;8.35;;;2.55;;
21488;SDS011;10906;45.194;5.684;2024-03-23T11:52:08;8.88;;;2.38;;
21488;SDS011;10906;45.194;5.684;2024-03-23T11:55:02;7.07;;;2.25;;
21488;SDS011;10906;45.194;5.684;2024-03-23T11:57:47;6.18;;;2.13;;
21488;SDS011;10906;45.194;5.684;2024-03-23T12:00:34;8.32;;;2.65;;
21488;SDS011;10906;45.194;5.684;2024-03-23T12:03:19;11.93;;;2.25;;
21488;SDS011;10906;45.194;5.684;2024-03-23T12:06:26;7.22;;;2.00;;
21488;SDS011;10906;45.194;5.684;2024-03-23T12:09:14;7.43;;;2.45;;
21488;SDS011;10906;45.194;5.684;2024-03-23T12:12:05;6.57;;;2.17;;
21488;SDS011;10906;45.194;5.684;2024-03-23T12:14:33;6.38;;;2.00;;
21488;SDS011;10906;45.194;5.684;2024-03-23T12:18:05;7.28;;;2.13;;
21488;SDS011;10906;45.194;5.684;2024-03-23T12:20:50;6.90;;;2.22;;
21488;SDS011;10906;45.194;5.684;2024-03-23T12:23:35;9.60;;;2.00;;
21488;SDS011;10906;45.194;5.684;2024-03-23T12:26:19;6.72;;;2.30;;
21488;SDS011;10906;45.194;5.684;2024-03-23T12:29:04;6.88;;;2.15;;
21488;SDS011;10906;45.194;5.684;2024-03-23T12:31:48;11.45;;;2.10;;
21488;SDS011;10906;45.194;5.684;2024-03-23T12:34:36;7.50;;;2.42;;
21488;SDS011;10906;45.194;5.684;2024-03-23T12:41:13;6.53;;;1.98;;
21488;SDS011;10906;45.194;5.684;2024-03-23T12:44:03;7.88;;;2.53;;
21488;SDS011;10906;45.194;5.684;2024-03-23T12:46:47;8.70;;;2.50;;
21488;SDS011;10906;45.194;5.684;2024-03-23T13:05:26;6.55;;;2.03;;
21488;SDS011;10906;45.194;5.684;2024-03-23T13:08:27;8.23;;;2.30;;
21488;SDS011;10906;45.194;5.684;2024-03-23T13:11:12;7.82;;;2.28;;
21488;SDS011;10906;45.194;5.684;2024-03-23T13:13:57;6.45;;;2.22;;
21488;SDS011;10906;45.194;5.684;2024-03-23T13:16:42;10.25;;;2.80;;
21488;SDS011;10906;45.194;5.684;2024-03-23T13:19:26;10.68;;;2.90;;
21488;SDS011;10906;45.194;5.684;2024-03-23T13:22:14;6.80;;;2.65;;
21488;SDS011;10906;45.194;5.684;2024-03-23T13:24:58;9.88;;;1.88;;
21488;SDS011;10906;45.194;5.684;2024-03-23T13:27:44;8.18;;;2.00;;
21488;SDS011;10906;45.194;5.684;2024-03-23T13:30:28;8.38;;;2.33;;
21488;SDS011;10906;45.194;5.684;2024-03-23T13:33:13;6.55;;;1.88;;
21488;SDS011;10906;45.194;5.684;2024-03-23T13:35:57;6.80;;;2.13;;
21488;SDS011;10906;45.194;5.684;2024-03-23T13:38:42;7.13;;;2.17;;
21488;SDS011;10906;45.194;5.684;2024-03-23T13:41:27;19.00;;;7.25;;
21488;SDS011;10906;45.194;5.684;2024-03-23T13:44:12;10.90;;;3.30;;
21488;SDS011;10906;45.194;5.684;2024-03-23T13:46:57;11.02;;;3.13;;
21488;SDS011;10906;45.194;5.684;2024-03-23T13:50:02;66.93;;;23.70;;
21488;SDS011;10906;45.194;5.684;2024-03-23T13:52:47;27.27;;;8.50;;
21488;SDS011;10906;45.194;5.684;2024-03-23T13:55:32;14.90;;;4.93;;
21488;SDS011;10906;45.194;5.684;2024-03-23T13:58:16;23.98;;;5.45;;
21488;SDS011;10906;45.194;5.684;2024-03-23T14:01:01;19.23;;;5.22;;
21488;SDS011;10906;45.194;5.684;2024-03-23T14:03:45;6.95;;;3.10;;
21488;SDS011;10906;45.194;5.684;2024-03-23T14:06:30;6.57;;;2.78;;
21488;SDS011;10906;45.194;5.684;2024-03-23T14:09:14;6.28;;;1.90;;
21488;SDS011;10906;45.194;5.684;2024-03-23T14:12:04;7.55;;;1.88;;
21488;SDS011;10906;45.194;5.684;2024-03-23T14:14:49;9.13;;;2.45;;
21488;SDS011;10906;45.194;5.684;2024-03-23T14:17:35;9.07;;;2.10;;
21488;SDS011;10906;45.194;5.684;2024-03-23T14:20:20;8.57;;;2.60;;
21488;SDS011;10906;45.194;5.684;2024-03-23T14:23:05;5.68;;;1.88;;
21488;SDS011;10906;45.194;5.684;2024-03-23T14:25:52;17.13;;;5.30;;
21488;SDS011;10906;45.194;5.684;2024-03-23T14:28:37;9.25;;;2.25;;
21488;SDS011;10906;45.194;5.684;2024-03-23T14:31:22;12.95;;;4.25;;
21488;SDS011;10906;45.194;5.684;2024-03-23T14:34:07;7.20;;;2.10;;
21488;SDS011;10906;45.194;5.684;2024-03-23T14:36:51;9.23;;;2.88;;
21488;SDS011;10906;45.194;5.684;2024-03-23T14:39:36;14.25;;;4.25;;
21488;SDS011;10906;45.194;5.684;2024-03-23T14:42:22;11.25;;;2.20;;
21488;SDS011;10906;45.194;5.684;2024-03-23T14:45:09;8.10;;;2.15;;
21488;SDS011;10906;45.194;5.684;2024-03-23T14:47:55;6.72;;;2.03;;
21488;SDS011;10906;45.194;5.684;2024-03-23T14:50:42;14.55;;;4.43;;
21488;SDS011;10906;45.194;5.684;2024-03-23T14:53:27;5.07;;;1.80;;
21488;SDS011;10906;45.194;5.684;2024-03-23T14:56:13;4.88;;;1.83;;
21488;SDS011;10906;45.194;5.684;2024-03-23T14:58:59;12.52;;;3.10;;
21488;SDS011;10906;45.194;5.684;2024-03-23T15:01:44;7.45;;;2.90;;
21488;SDS011;10906;45.194;5.684;2024-03-23T15:04:28;11.70;;;2.58;;
21488;SDS011;10906;45.194;5.684;2024-03-23T15:07:13;6.53;;;2.20;;
21488;SDS011;10906;45.194;5.684;2024-03-23T15:09:57;7.47;;;2.17;;
21488;SDS011;10906;45.194;5.684;2024-03-23T15:12:42;5.97;;;1.50;;
21488;SDS011;10906;45.194;5.684;2024-03-23T15:15:27;8.13;;;1.90;;
21488;SDS011;10906;45.194;5.684;2024-03-23T15:18:12;8.60;;;2.45;;
21488;SDS011;10906;45.194;5.684;2024-03-23T15:20:59;8.52;;;3.67;;
21488;SDS011;10906;45.194;5.684;2024-03-23T15:23:46;9.73;;;3.13;;
21488;SDS011;10906;45.194;5.684;2024-03-23T15:26:32;59.70;;;10.25;;
21488;SDS011;10906;45.194;5.684;2024-03-23T15:29:16;14.23;;;3.67;;
21488;SDS011;10906;45.194;5.684;2024-03-23T15:32:01;9.68;;;2.00;;
21488;SDS011;10906;45.194;5.684;2024-03-23T15:34:45;12.52;;;3.28;;
21488;SDS011;10906;45.194;5.684;2024-03-23T15:37:31;7.70;;;2.20;;
21488;SDS011;10906;45.194;5.684;2024-03-23T15:40:15;14.82;;;4.50;;
21488;SDS011;10906;45.194;5.684;2024-03-23T15:43:00;4.75;;;1.50;;
21488;SDS011;10906;45.194;5.684;2024-03-23T15:45:44;14.02;;;3.67;;
21488;SDS011;10906;45.194;5.684;2024-03-23T15:48:38;9.75;;;2.75;;
21488;SDS011;10906;45.194;5.684;2024-03-23T15:51:32;24.95;;;7.18;;
21488;SDS011;10906;45.194;5.684;2024-03-23T15:54:18;4.18;;;1.80;;
21488;SDS011;10906;45.194;5.684;2024-03-23T15:57:06;8.35;;;2.88;;
21488;SDS011;10906;45.194;5.684;2024-03-23T16:00:24;10.07;;;3.63;;
21488;SDS011;10906;45.194;5.684;2024-03-23T16:03:50;8.52;;;2.88;;
21488;SDS011;10906;45.194;5.684;2024-03-23T16:06:34;4.70;;;1.50;;
21488;SDS011;10906;45.194;5.684;2024-03-23T16:09:19;7.22;;;1.92;;
21488;SDS011;10906;45.194;5.684;2024-03-23T16:12:05;22.45;;;7.70;;
21488;SDS011;10906;45.194;5.684;2024-03-23T16:14:53;48.38;;;15.57;;
21488;SDS011;10906;45.194;5.684;2024-03-23T16:18:09;4.38;;;1.58;;
21488;SDS011;10906;45.194;5.684;2024-03-23T16:23:48;2.72;;;1.23;;
21488;SDS011;10906;45.194;5.684;2024-03-23T16:26:33;5.55;;;2.00;;
21488;SDS011;10906;45.194;5.684;2024-03-23T16:29:17;5.22;;;2.20;;
21488;SDS011;10906;45.194;5.684;2024-03-23T16:32:02;4.18;;;1.88;;
21488;SDS011;10906;45.194;5.684;2024-03-23T16:34:47;6.68;;;1.60;;
21488;SDS011;10906;45.194;5.684;2024-03-23T16:37:31;5.70;;;1.50;;
21488;SDS011;10906;45.194;5.684;2024-03-23T16:40:19;5.18;;;1.30;;
21488;SDS011;10906;45.194;5.684;2024-03-23T16:43:07;3.92;;;1.35;;
21488;SDS011;10906;45.194;5.684;2024-03-23T16:46:01;4.53;;;1.60;;
21488;SDS011;10906;45.194;5.684;2024-03-23T16:48:47;4.18;;;1.30;;
21488;SDS011;10906;45.194;5.684;2024-03-23T16:51:31;4.93;;;1.38;;
21488;SDS011;10906;45.194;5.684;2024-03-23T16:54:16;5.00;;;1.40;;
21488;SDS011;10906;45.194;5.684;2024-03-23T17:00:38;4.40;;;1.42;;
21488;SDS011;10906;45.194;5.684;2024-03-23T17:03:46;4.25;;;1.20;;
21488;SDS011;10906;45.194;5.684;2024-03-23T17:06:40;4.57;;;1.30;;
21488;SDS011;10906;45.194;5.684;2024-03-23T17:09:25;3.42;;;1.10;;
21488;SDS011;10906;45.194;5.684;2024-03-23T17:12:09;4.10;;;1.38;;
21488;SDS011;10906;45.194;5.684;2024-03-23T17:14:54;3.30;;;1.30;;
21488;SDS011;10906;45.194;5.684;2024-03-23T17:17:38;5.95;;;1.70;;
21488;SDS011;10906;45.194;5.684;2024-03-23T17:20:22;7.72;;;1.52;;
21488;SDS011;10906;45.194;5.684;2024-03-23T17:23:07;3.47;;;1.35;;
21488;SDS011;10906;45.194;5.684;2024-03-23T17:25:51;4.38;;;1.27;;
21488;SDS011;10906;45.194;5.684;2024-03-23T17:28:36;4.57;;;1.20;;
21488;SDS011;10906;45.194;5.684;2024-03-23T17:31:27;4.78;;;1.85;;
21488;SDS011;10906;45.194;5.684;2024-03-23T17:38:18;7.07;;;1.42;;
21488;SDS011;10906;45.194;5.684;2024-03-23T17:41:20;5.90;;;1.58;;
21488;SDS011;10906;45.194;5.684;2024-03-23T17:44:05;3.10;;;1.20;;
21488;SDS011;10906;45.194;5.684;2024-03-23T17:46:50;6.18;;;1.60;;
21488;SDS011;10906;45.194;5.684;2024-03-23T17:49:34;5.32;;;1.65;;
21488;SDS011;10906;45.194;5.684;2024-03-23T17:52:19;7.97;;;1.88;;
21488;SDS011;10906;45.194;5.684;2024-03-23T17:55:04;4.88;;;1.50;;
21488;SDS011;10906;45.194;5.684;2024-03-23T17:57:48;3.63;;;1.52;;
21488;SDS011;10906;45.194;5.684;2024-03-23T18:00:33;7.32;;;2.08;;
21488;SDS011;10906;45.194;5.684;2024-03-23T18:03:20;6.05;;;1.80;;
21488;SDS011;10906;45.194;5.684;2024-03-23T18:40:31;11.27;;;3.47;;
21488;SDS011;10906;45.194;5.684;2024-03-23T18:43:16;8.07;;;4.38;;
21488;SDS011;10906;45.194;5.684;2024-03-23T18:46:00;7.20;;;2.38;;
21488;SDS011;10906;45.194;5.684;2024-03-23T18:48:48;4.03;;;2.00;;
21488;SDS011;10906;45.194;5.684;2024-03-23T18:51:33;6.28;;;1.85;;
21488;SDS011;10906;45.194;5.684;2024-03-23T18:54:17;6.85;;;1.75;;
21488;SDS011;10906;45.194;5.684;2024-03-23T19:02:35;6.70;;;2.03;;
21488;SDS011;10906;45.194;5.684;2024-03-23T19:05:19;8.52;;;2.50;;
21488;SDS011;10906;45.194;5.684;2024-03-23T19:08:04;8.02;;;2.72;;
21488;SDS011;10906;45.194;5.684;2024-03-23T19:13:40;11.00;;;2.28;;
21488;SDS011;10906;45.194;5.684;2024-03-23T19:16:24;5.53;;;2.78;;
21488;SDS011;10906;45.194;5.684;2024-03-23T19:19:11;7.55;;;3.00;;
21488;SDS011;10906;45.194;5.684;2024-03-23T19:21:56;8.55;;;2.85;;
21488;SDS011;10906;45.194;5.684;2024-03-23T19:24:42;9.63;;;2.70;;
21488;SDS011;10906;45.194;5.684;2024-03-23T19:27:26;9.30;;;2.47;;
21488;SDS011;10906;45.194;5.684;2024-03-23T19:30:11;9.40;;;2.40;;
21488;SDS011;10906;45.194;5.684;2024-03-23T19:32:59;6.55;;;1.85;;
21488;SDS011;10906;45.194;5.684;2024-03-23T19:35:57;5.65;;;1.98;;
21488;SDS011;10906;45.194;5.684;2024-03-23T19:38:42;7.55;;;2.03;;
21488;SDS011;10906;45.194;5.684;2024-03-23T19:41:26;5.60;;;2.30;;
21488;SDS011;10906;45.194;5.684;2024-03-23T19:44:14;5.82;;;2.55;;
21488;SDS011;10906;45.194;5.684;2024-03-23T19:46:58;5.22;;;2.17;;
21488;SDS011;10906;45.194;5.684;2024-03-23T19:49:42;8.35;;;2.20;;
21488;SDS011;10906;45.194;5.684;2024-03-23T19:52:27;14.35;;;10.25;;
21488;SDS011;10906;45.194;5.684;2024-03-23T19:55:12;11.30;;;7.60;;
21488;SDS011;10906;45.194;5.684;2024-03-23T19:57:56;8.85;;;3.95;;
21488;SDS011;10906;45.194;5.684;2024-03-23T20:00:42;9.10;;;3.05;;
21488;SDS011;10906;45.194;5.684;2024-03-23T20:03:26;6.88;;;2.15;;
21488;SDS011;10906;45.194;5.684;2024-03-23T20:06:11;7.60;;;2.38;;
21488;SDS011;10906;45.194;5.684;2024-03-23T20:08:55;7.40;;;2.20;;
21488;SDS011;10906;45.194;5.684;2024-03-23T20:14:24;6.45;;;2.40;;
21488;SDS011;10906;45.194;5.684;2024-03-23T20:17:09;11.35;;;2.25;;
21488;SDS011;10906;45.194;5.684;2024-03-23T20:19:55;7.22;;;2.72;;
21488;SDS011;10906;45.194;5.684;2024-03-23T20:22:40;5.97;;;2.60;;
21488;SDS011;10906;45.194;5.684;2024-03-23T20:25:24;6.85;;;2.75;;
21488;SDS011;10906;45.194;5.684;2024-03-23T20:28:11;8.05;;;2.42;;
21488;SDS011;10906;45.194;5.684;2024-03-23T20:30:56;6.15;;;2.15;;
21488;SDS011;10906;45.194;5.684;2024-03-23T20:33:45;5.18;;;2.08;;
21488;SDS011;10906;45.194;5.684;2024-03-23T20:36:31;4.93;;;2.30;;
21488;SDS011;10906;45.194;5.684;2024-03-23T20:39:25;9.38;;;3.65;;
21488;SDS011;10906;45.194;5.684;2024-03-23T20:42:09;7.07;;;2.13;;
21488;SDS011;10906;45.194;5.684;2024-03-23T20:44:55;8.85;;;2.45;;
21488;SDS011;10906;45.194;5.684;2024-03-23T20:47:41;10.75;;;2.30;;
21488;SDS011;10906;45.194;5.684;2024-03-23T20:50:27;5.95;;;2.08;;
21488;SDS011;10906;45.194;5.684;2024-03-23T20:53:11;5.97;;;2.00;;
21488;SDS011;10906;45.194;5.684;2024-03-23T20:58:49;7.10;;;2.40;;
21488;SDS011;10906;45.194;5.684;2024-03-23T21:01:39;6.55;;;2.20;;
21488;SDS011;10906;45.194;5.684;2024-03-23T21:04:26;12.85;;;2.83;;
21488;SDS011;10906;45.194;5.684;2024-03-23T21:07:18;7.72;;;2.33;;
21488;SDS011;10906;45.194;5.684;2024-03-23T21:10:03;6.47;;;2.17;;
21488;SDS011;10906;45.194;5.684;2024-03-23T21:12:50;7.78;;;2.88;;
21488;SDS011;10906;45.194;5.684;2024-03-23T21:15:34;13.52;;;3.28;;
21488;SDS011;10906;45.194;5.684;2024-03-23T21:18:18;12.85;;;2.85;;
21488;SDS011;10906;45.194;5.684;2024-03-23T21:21:03;6.25;;;2.30;;
21488;SDS011;10906;45.194;5.684;2024-03-23T21:23:49;5.63;;;2.35;;
21488;SDS011;10906;45.194;5.684;2024-03-23T21:26:33;7.20;;;2.20;;
21488;SDS011;10906;45.194;5.684;2024-03-23T21:29:21;11.60;;;3.72;;
21488;SDS011;10906;45.194;5.684;2024-03-23T21:32:06;22.38;;;9.38;;
21488;SDS011;10906;45.194;5.684;2024-03-23T21:34:51;30.45;;;15.82;;
21488;SDS011;10906;45.194;5.684;2024-03-23T21:37:36;19.52;;;7.68;;
21488;SDS011;10906;45.194;5.684;2024-03-23T21:40:20;9.50;;;4.30;;
21488;SDS011;10906;45.194;5.684;2024-03-23T21:43:05;8.57;;;2.85;;
21488;SDS011;10906;45.194;5.684;2024-03-23T21:45:54;9.43;;;2.60;;
21488;SDS011;10906;45.194;5.684;2024-03-23T21:48:39;7.95;;;2.15;;
21488;SDS011;10906;45.194;5.684;2024-03-23T21:51:27;16.50;;;8.80;;
21488;SDS011;10906;45.194;5.684;2024-03-23T21:54:12;9.98;;;4.90;;
21488;SDS011;10906;45.194;5.684;2024-03-23T21:56:57;6.80;;;2.90;;
21488;SDS011;10906;45.194;5.684;2024-03-23T21:59:42;8.48;;;2.15;;
21488;SDS011;10906;45.194;5.684;2024-03-23T22:02:26;5.18;;;1.88;;
21488;SDS011;10906;45.194;5.684;2024-03-23T22:05:14;7.93;;;2.00;;
21488;SDS011;10906;45.194;5.684;2024-03-23T22:07:59;7.03;;;2.22;;
21488;SDS011;10906;45.194;5.684;2024-03-23T22:10:44;10.27;;;2.15;;
21488;SDS011;10906;45.194;5.684;2024-03-23T22:13:29;8.48;;;2.10;;
21488;SDS011;10906;45.194;5.684;2024-03-23T22:16:13;4.57;;;2.00;;
21488;SDS011;10906;45.194;5.684;2024-03-23T22:18:58;12.40;;;5.80;;
21488;SDS011;10906;45.194;5.684;2024-03-23T22:21:43;12.82;;;4.90;;
21488;SDS011;10906;45.194;5.684;2024-03-23T22:24:28;13.60;;;5.80;;
21488;SDS011;10906;45.194;5.684;2024-03-23T22:27:13;17.60;;;8.23;;
21488;SDS011;10906;45.194;5.684;2024-03-23T22:29:57;15.82;;;8.05;;
21488;SDS011;10906;45.194;5.684;2024-03-23T22:32:45;9.88;;;5.40;;
21488;SDS011;10906;45.194;5.684;2024-03-23T22:35:29;8.68;;;3.30;;
21488;SDS011;10906;45.194;5.684;2024-03-23T22:38:14;8.05;;;3.35;;
21488;SDS011;10906;45.194;5.684;2024-03-23T22:41:00;8.38;;;2.53;;
21488;SDS011;10906;45.194;5.684;2024-03-23T22:43:45;7.50;;;2.45;;
21488;SDS011;10906;45.194;5.684;2024-03-23T22:46:30;9.57;;;2.15;;
21488;SDS011;10906;45.194;5.684;2024-03-23T22:49:14;5.35;;;1.90;;
21488;SDS011;10906;45.194;5.684;2024-03-23T22:51:59;8.80;;;1.88;;
21488;SDS011;10906;45.194;5.684;2024-03-23T22:54:43;8.43;;;1.60;;
21488;SDS011;10906;45.194;5.684;2024-03-23T22:57:27;6.53;;;2.00;;
